Time;durP1;ratioP1;P1;durP2;ratioP2;P2;SDS_P1;SDS_P2;PMS_P1;PMS_P2;Temp;Humidity;BMP_temperature;BMP_pressure;BME280_temperature;BME280_humidity;BME280_pressure;Samples;Min_cycle;Max_cycle;Signal;HPM_P1;HPM_P2
2022/07/24 00:00:42;;;;;;;;;;;;;;;21.91;86.52;153161.44;1643767;86;20479;-59
2022/07/24 00:03:09;;;;;;;;;;;;;;;21.89;86.60;153157.48;1643661;87;20242;-59
2022/07/24 00:05:36;;;;;;;;;;;;;;;21.88;86.67;153154.88;1649210;86;20396;-60
2022/07/24 00:08:04;;;;;;;;;;;;;;;21.86;86.70;153149.66;1653383;85;20193;-60
2022/07/24 00:10:31;;;;;;;;;;;;;;;21.85;86.66;153147.03;1657878;85;21985;-61
2022/07/24 00:12:57;;;;;;;;;;;;;;;21.84;86.53;153144.42;1683497;84;20115;-60
2022/07/24 00:15:24;;;;;;;;;;;;;;;21.83;86.41;153143.09;1683295;84;20271;-60
2022/07/24 00:17:51;;;;;;;;;;;;;;;21.81;86.19;153137.86;1672457;84;20212;-60
2022/07/24 00:20:17;;;;;;;;;;;;;;;21.82;86.03;153139.19;1643127;86;20243;-61
2022/07/24 00:22:44;;;;;;;;;;;;;;;21.81;86.00;153137.86;1643180;86;21223;-60
2022/07/24 00:25:12;;;;;;;;;;;;;;;21.82;86.01;153139.19;1643562;87;20544;-60
2022/07/24 00:27:39;;;;;;;;;;;;;;;21.79;85.99;153131.36;1643464;87;20219;-60
2022/07/24 00:30:07;;;;;;;;;;;;;;;21.79;85.82;153132.64;1643495;86;21006;-60
2022/07/24 00:32:34;;;;;;;;;;;;;;;21.80;85.54;153133.97;1643748;87;20373;-60
2022/07/24 00:35:01;;;;;;;;;;;;;;;21.79;85.49;153131.36;1643515;87;22155;-60
2022/07/24 00:37:28;;;;;;;;;;;;;;;21.79;85.43;153131.36;1643507;86;20160;-60
2022/07/24 00:39:54;;;;;;;;;;;;;;;21.79;85.36;153131.36;1643708;86;20179;-60
2022/07/24 00:42:21;;;;;;;;;;;;;;;21.78;85.28;153128.75;1643862;86;20170;-60
2022/07/24 00:44:48;;;;;;;;;;;;;;;21.77;85.21;153126.08;1643715;87;20232;-61
2022/07/24 00:47:15;;;;;;;;;;;;;;;21.77;84.97;153126.08;1644021;87;21136;-59
2022/07/24 00:49:41;;;;;;;;;;;;;;;21.75;84.79;153123.47;1643501;87;20234;-60
2022/07/24 00:52:08;;;;;;;;;;;;;;;21.75;84.77;153122.19;1643991;86;20269;-59
2022/07/24 00:54:35;;;;;;;;;;;;;;;21.74;84.81;153120.86;1643555;87;20199;-60
2022/07/24 00:57:03;;;;;;;;;;;;;;;21.71;84.85;153111.73;1643810;87;35603;-60
2022/07/24 00:59:30;;;;;;;;;;;;;;;21.70;84.89;153109.13;1644106;86;22195;-60
2022/07/24 01:01:56;;;;;;;;;;;;;;;21.68;84.96;153105.19;1643791;87;20128;-60
2022/07/24 01:04:23;;;;;;;;;;;;;;;21.67;85.16;153101.28;1644557;85;20500;-60
2022/07/24 01:06:50;;;;;;;;;;;;;;;21.66;85.27;153099.95;1653541;85;20897;-60
2022/07/24 01:09:17;;;;;;;;;;;;;;;21.64;85.52;153094.69;1653563;86;20174;-60
2022/07/24 01:11:43;;;;;;;;;;;;;;;21.62;86.07;153089.45;1673624;85;21258;-60
2022/07/24 01:14:12;;;;;;;;;;;;;;;21.59;86.52;153082.91;1684147;85;20477;-60
2022/07/24 01:16:39;;;;;;;;;;;;;;;21.56;86.80;153075.06;1683822;85;20183;-60
2022/07/24 01:19:07;;;;;;;;;;;;;;;21.53;86.90;153065.91;1651755;85;20447;-60
2022/07/24 01:21:34;;;;;;;;;;;;;;;21.51;87.08;153060.67;1643837;87;20559;-60
2022/07/24 01:24:01;;;;;;;;;;;;;;;21.48;87.22;153054.17;1643979;86;21236;-59
2022/07/24 01:26:28;;;;;;;;;;;;;;;21.44;87.12;153045.00;1644047;86;20541;-60
2022/07/24 01:28:54;;;;;;;;;;;;;;;21.41;86.70;153037.16;1643890;87;20216;-60
2022/07/24 01:31:21;;;;;;;;;;;;;;;21.40;86.28;153034.55;1643819;86;20199;-60
2022/07/24 01:33:48;;;;;;;;;;;;;;;21.38;86.21;153029.33;1643753;87;20211;-60
2022/07/24 01:36:14;;;;;;;;;;;;;;;21.34;86.31;153018.88;1642992;87;21136;-60
2022/07/24 01:38:41;;;;;;;;;;;;;;;21.32;86.44;153013.61;1625057;88;20483;-60
2022/07/24 01:41:09;;;;;;;;;;;;;;;21.28;86.41;153003.16;1625335;87;20211;-60
2022/07/24 01:43:36;;;;;;;;;;;;;;;21.24;86.59;152994.05;1625196;87;20200;-60
2022/07/24 01:46:02;;;;;;;;;;;;;;;21.21;86.58;152984.88;1625393;87;20213;-59
2022/07/24 01:48:29;;;;;;;;;;;;;;;21.18;86.61;152979.66;1625270;87;21291;-59
2022/07/24 01:50:56;;;;;;;;;;;;;;;21.16;86.37;152974.42;1625147;88;20204;-59
2022/07/24 01:53:22;;;;;;;;;;;;;;;21.15;86.04;152970.48;1625284;88;20219;-59
2022/07/24 01:55:50;;;;;;;;;;;;;;;21.14;85.90;152969.20;1625100;88;20227;-60
2022/07/24 01:58:18;;;;;;;;;;;;;;;21.14;85.97;152969.20;1625587;88;20167;-60
2022/07/24 02:00:45;;;;;;;;;;;;;;;21.13;85.83;152966.59;1625122;88;21133;-60
2022/07/24 02:03:11;;;;;;;;;;;;;;;21.14;85.70;152967.88;1625145;88;20229;-59
2022/07/24 02:05:39;;;;;;;;;;;;;;;21.11;86.15;152961.38;1627958;88;20182;-59
2022/07/24 02:08:07;;;;;;;;;;;;;;;21.05;85.89;152945.66;1630363;88;20114;-59
2022/07/24 02:10:34;;;;;;;;;;;;;;;21.02;85.64;152937.81;1636168;86;20219;-59
2022/07/24 02:13:04;;;;;;;;;;;;;;;21.02;86.01;152937.81;1664476;85;21146;-59
2022/07/24 02:15:31;;;;;;;;;;;;;;;21.00;86.38;152932.59;1664312;85;20428;-59
2022/07/24 02:17:59;;;;;;;;;;;;;;;21.00;86.21;152932.59;1662002;86;20211;-58
2022/07/24 02:20:26;;;;;;;;;;;;;;;21.01;85.49;152935.20;1657147;86;20182;-59
2022/07/24 02:22:53;;;;;;;;;;;;;;;21.05;84.97;152945.66;1657180;86;20240;-59
2022/07/24 02:25:20;;;;;;;;;;;;;;;21.08;84.71;152953.48;1657142;86;21218;-59
2022/07/24 02:27:47;;;;;;;;;;;;;;;21.10;84.56;152958.70;1656917;85;20188;-58
2022/07/24 02:30:16;;;;;;;;;;;;;;;21.11;84.36;152961.38;1657120;86;20179;-59
2022/07/24 02:32:43;;;;;;;;;;;;;;;21.12;84.00;152963.98;1657118;86;20722;-59
2022/07/24 02:35:11;;;;;;;;;;;;;;;21.15;83.75;152971.81;1657418;86;20187;-59
2022/07/24 02:37:38;;;;;;;;;;;;;;;21.19;83.45;152980.94;1658889;85;21157;-58
2022/07/24 02:40:07;;;;;;;;;;;;;;;21.23;83.35;152990.09;1661554;86;20190;-59
2022/07/24 02:42:34;;;;;;;;;;;;;;;21.26;83.79;152997.94;1661586;86;20432;-60
2022/07/24 02:45:00;;;;;;;;;;;;;;;21.30;84.41;153009.72;1661360;86;20190;-60
2022/07/24 02:47:27;;;;;;;;;;;;;;;21.38;85.19;153028.00;1661436;86;20191;-58
2022/07/24 02:49:54;;;;;;;;;;;;;;;21.43;85.51;153042.39;1661505;86;21147;-59
2022/07/24 02:52:21;;;;;;;;;;;;;;;21.51;85.53;153060.67;1661337;86;20178;-59
2022/07/24 02:54:47;;;;;;;;;;;;;;;21.57;85.38;153077.67;1661400;86;20183;-60
2022/07/24 02:57:14;;;;;;;;;;;;;;;21.64;85.27;153094.69;1661378;86;20187;-59
2022/07/24 02:59:41;;;;;;;;;;;;;;;21.73;85.17;153116.97;1661218;86;20214;-59
2022/07/24 03:02:08;;;;;;;;;;;;;;;21.84;84.88;153144.42;1661377;86;21251;-59
2022/07/24 03:04:35;;;;;;;;;;;;;;;21.93;84.54;153167.94;1657241;86;20160;-59
2022/07/24 03:07:02;;;;;;;;;;;;;;;22.00;84.07;153186.28;1634504;86;20150;-59
2022/07/24 03:09:30;;;;;;;;;;;;;;;22.10;83.72;153209.80;1634572;87;20201;-59
2022/07/24 03:11:57;;;;;;;;;;;;;;;22.19;83.02;153233.31;1654673;86;20461;-59
2022/07/24 03:14:24;;;;;;;;;;;;;;;22.30;82.67;153262.11;1661456;86;21297;-59
2022/07/24 03:16:50;;;;;;;;;;;;;;;22.43;82.54;153294.80;1661215;86;20555;-60
2022/07/24 03:19:17;;;;;;;;;;;;;;;22.54;82.13;153321.00;1663905;86;20206;-59
2022/07/24 03:21:45;;;;;;;;;;;;;;;22.65;81.89;153348.47;1664241;86;20195;-58
2022/07/24 03:24:12;;;;;;;;;;;;;;;22.75;81.41;153374.66;1664141;86;20218;-58
2022/07/24 03:26:40;;;;;;;;;;;;;;;22.86;80.98;153402.13;1663894;86;21232;-58
2022/07/24 03:29:06;;;;;;;;;;;;;;;22.97;80.60;153429.59;1663989;86;20104;-59
2022/07/24 03:31:33;;;;;;;;;;;;;;;23.08;80.23;153457.08;1663882;86;20223;-59
2022/07/24 03:34:01;;;;;;;;;;;;;;;23.20;79.40;153487.17;1663713;86;20136;-60
2022/07/24 03:36:29;;;;;;;;;;;;;;;23.28;78.81;153508.14;1663827;85;20210;-59
2022/07/24 03:38:56;;;;;;;;;;;;;;;23.38;78.31;153534.34;1663941;84;21826;-59
2022/07/24 03:41:23;;;;;;;;;;;;;;;23.52;77.89;153568.34;1664248;85;20232;-59
2022/07/24 03:43:50;;;;;;;;;;;;;;;23.63;77.14;153597.16;1664223;86;20178;-59
2022/07/24 03:46:18;;;;;;;;;;;;;;;23.74;76.48;153625.94;1664200;85;20460;-59
2022/07/24 03:48:46;;;;;;;;;;;;;;;23.87;76.01;153657.38;1664316;86;20203;-59
2022/07/24 03:51:13;;;;;;;;;;;;;;;23.98;75.30;153686.16;1664440;86;21238;-59
2022/07/24 03:53:40;;;;;;;;;;;;;;;24.10;74.26;153715.03;1664032;86;20199;-59
2022/07/24 03:56:09;;;;;;;;;;;;;;;24.20;73.69;153741.19;1664313;86;20156;-59
2022/07/24 03:58:36;;;;;;;;;;;;;;;24.30;73.56;153767.41;1664042;86;20495;-59
2022/07/24 04:01:03;;;;;;;;;;;;;;;24.43;72.11;153798.86;1664419;86;20151;-60
2022/07/24 04:03:30;;;;;;;;;;;;;;;24.51;71.18;153819.78;1664468;86;21233;-60
2022/07/24 04:05:56;;;;;;;;;;;;;;;24.64;70.58;153851.19;1642790;86;20198;-60
2022/07/24 04:08:24;;;;;;;;;;;;;;;24.79;69.40;153890.56;1634356;86;20186;-60
2022/07/24 04:10:56;;;;;;;;;;;;;;;24.91;68.46;153920.67;1642498;86;20224;-60
2022/07/24 04:13:19;;;;;;;;;;;;;;;25.03;67.95;153950.80;1660960;86;20208;-60
2022/07/24 04:15:47;;;;;;;;;;;;;;;25.15;67.45;153982.27;1661230;86;21295;-60
2022/07/24 04:18:13;;;;;;;;;;;;;;;25.30;67.00;154018.92;1647446;86;20220;-59
2022/07/24 04:20:42;;;;;;;;;;;;;;;25.43;66.27;154053.00;1629456;87;20211;-59
2022/07/24 04:23:08;;;;;;;;;;;;;;;25.59;65.37;154092.38;1629553;87;20177;-59
2022/07/24 04:25:36;;;;;;;;;;;;;;;25.76;64.69;154134.33;1629559;88;20480;-60
2022/07/24 04:28:03;;;;;;;;;;;;;;;25.91;63.68;154172.33;1629622;86;23200;-60
2022/07/24 04:30:30;;;;;;;;;;;;;;;26.00;62.83;154195.91;1629837;87;20325;-61
2022/07/24 04:32:58;;;;;;;;;;;;;;;26.05;62.19;154207.72;1629599;87;20162;-59
2022/07/24 04:35:26;;;;;;;;;;;;;;;26.05;61.70;154207.72;1629840;88;20223;-60
2022/07/24 04:37:53;;;;;;;;;;;;;;;26.10;61.65;154222.14;1628071;85;20503;-60
2022/07/24 04:40:20;;;;;;;;;;;;;;;26.21;61.56;154249.72;1624956;88;21399;-59
2022/07/24 04:42:47;;;;;;;;;;;;;;;26.31;60.96;154275.91;1624934;88;20520;-59
2022/07/24 04:45:14;;;;;;;;;;;;;;;26.38;60.77;154291.63;1624989;87;20289;-61
2022/07/24 04:47:41;;;;;;;;;;;;;;;26.41;60.81;154300.83;1624902;88;20219;-60
2022/07/24 04:50:08;;;;;;;;;;;;;;;26.46;60.71;154312.64;1625483;87;20140;-60
2022/07/24 04:52:35;;;;;;;;;;;;;;;26.56;60.43;154338.84;1625390;88;22033;-60
2022/07/24 04:55:01;;;;;;;;;;;;;;;26.65;59.84;154361.13;1625293;88;20157;-60
2022/07/24 04:57:28;;;;;;;;;;;;;;;26.72;59.49;154378.19;1625169;87;20208;-61
2022/07/24 04:59:56;;;;;;;;;;;;;;;26.82;58.97;154404.39;1625090;87;20211;-60
2022/07/24 05:02:23;;;;;;;;;;;;;;;26.82;58.67;154404.39;1625301;88;20487;-59
2022/07/24 05:04:50;;;;;;;;;;;;;;;26.81;59.29;154401.77;1626633;88;20597;-59
2022/07/24 05:07:16;;;;;;;;;;;;;;;26.89;59.99;154421.50;1630186;87;20182;-60
2022/07/24 05:09:45;;;;;;;;;;;;;;;26.97;60.40;154441.19;1630424;86;21340;-59
2022/07/24 05:12:11;;;;;;;;;;;;;;;27.07;60.67;154467.39;1659497;86;20255;-61
2022/07/24 05:14:38;;;;;;;;;;;;;;;27.12;60.76;154480.53;1664418;86;20238;-59
2022/07/24 05:17:05;;;;;;;;;;;;;;;27.16;61.12;154491.03;1664584;85;21267;-59
2022/07/24 05:19:34;;;;;;;;;;;;;;;27.25;60.91;154511.98;1625657;85;20223;-60
2022/07/24 05:22:00;;;;;;;;;;;;;;;27.33;60.87;154533.00;1624906;88;20236;-61
2022/07/24 05:24:29;;;;;;;;;;;;;;;27.39;61.15;154548.73;1624978;87;20175;-62
2022/07/24 05:26:56;;;;;;;;;;;;;;;27.46;61.60;154567.08;1625221;88;20203;-61
2022/07/24 05:29:23;;;;;;;;;;;;;;;27.55;61.43;154588.16;1625198;87;21237;-60
2022/07/24 05:31:51;;;;;;;;;;;;;;;27.62;61.60;154606.50;1625175;88;20223;-60
2022/07/24 05:34:18;;;;;;;;;;;;;;;27.65;61.11;154614.38;1625619;88;20212;-59
2022/07/24 05:36:45;;;;;;;;;;;;;;;27.72;61.89;154632.72;1625176;88;20624;-60
2022/07/24 05:39:12;;;;;;;;;;;;;;;27.83;62.06;154660.27;1637918;87;20204;-61
2022/07/24 05:41:38;;;;;;;;;;;;;;;27.92;61.81;154681.30;1643823;86;21216;-60
2022/07/24 05:44:05;;;;;;;;;;;;;;;28.01;61.99;154706.23;1643702;86;20447;-61
2022/07/24 05:46:32;;;;;;;;;;;;;;;28.06;62.41;154716.72;1643857;86;20228;-60
2022/07/24 05:48:59;;;;;;;;;;;;;;;28.08;62.56;154721.97;1643664;86;20263;-59
2022/07/24 05:51:27;;;;;;;;;;;;;;;28.07;62.68;154719.34;1644086;86;20195;-59
2022/07/24 05:53:54;;;;;;;;;;;;;;;28.10;62.89;154727.20;1643807;86;21221;-59
2022/07/24 05:56:20;;;;;;;;;;;;;;;28.16;62.82;154744.33;1643717;87;20238;-59
2022/07/24 05:58:47;;;;;;;;;;;;;;;28.22;63.08;154758.78;1643642;86;20576;-59
2022/07/24 06:01:15;;;;;;;;;;;;;;;28.29;63.06;154777.12;1643819;86;20286;-60
2022/07/24 06:03:42;;;;;;;;;;;;;;;28.36;63.24;154792.88;1643830;86;20235;-60
2022/07/24 06:06:09;;;;;;;;;;;;;;;28.31;63.13;154782.37;1651728;86;21850;-59
2022/07/24 06:08:35;;;;;;;;;;;;;;;28.36;63.80;154792.88;1653422;85;20177;-59
2022/07/24 06:11:02;;;;;;;;;;;;;;;28.40;64.00;154803.36;1664766;85;20178;-60
2022/07/24 06:13:29;;;;;;;;;;;;;;;28.44;64.01;154813.89;1684161;85;20517;-60
2022/07/24 06:15:58;;;;;;;;;;;;;;;28.47;64.03;154821.77;1684175;84;20441;-60
2022/07/24 06:18:25;;;;;;;;;;;;;;;28.49;64.06;154827.00;1663559;84;20360;-60
2022/07/24 06:20:51;;;;;;;;;;;;;;;28.54;63.34;154840.13;1643777;87;20242;-61
2022/07/24 06:23:18;;;;;;;;;;;;;;;28.57;63.05;154847.98;1643729;86;20218;-60
2022/07/24 06:25:44;;;;;;;;;;;;;;;28.67;62.88;154871.66;1643580;87;20195;-60
2022/07/24 06:28:11;;;;;;;;;;;;;;;28.71;62.89;154882.14;1643884;86;20203;-60
2022/07/24 06:30:38;;;;;;;;;;;;;;;28.75;62.75;154892.62;1644032;87;21201;-59
2022/07/24 06:33:05;;;;;;;;;;;;;;;28.81;62.96;154908.42;1643784;86;20451;-60
2022/07/24 06:35:32;;;;;;;;;;;;;;;28.86;62.77;154921.58;1643901;86;20259;-60
2022/07/24 06:38:04;;;;;;;;;;;;;;;28.90;62.91;154929.45;1642979;86;20266;-60
2022/07/24 06:40:28;;;;;;;;;;;;;;;28.95;62.85;154942.58;1642564;87;20238;-60
2022/07/24 06:42:55;;;;;;;;;;;;;;;29.01;62.38;154959.66;1643454;86;21931;-60
2022/07/24 06:45:22;;;;;;;;;;;;;;;29.11;62.51;154984.59;1643373;86;20293;-61
2022/07/24 06:47:49;;;;;;;;;;;;;;;29.15;60.62;154995.09;1643453;87;20242;-60
2022/07/24 06:50:15;;;;;;;;;;;;;;;29.13;59.93;154989.84;1643586;86;20558;-60
2022/07/24 06:52:42;;;;;;;;;;;;;;;29.18;60.12;155000.34;1643653;87;20210;-59
2022/07/24 06:55:09;;;;;;;;;;;;;;;29.23;59.29;155013.47;1643858;86;21317;-59
2022/07/24 06:57:36;;;;;;;;;;;;;;;29.26;59.15;155022.67;1643744;87;20243;-59
2022/07/24 07:00:07;;;;;;;;;;;;;;;29.33;60.04;155039.75;1643780;86;20222;-60
2022/07/24 07:02:34;;;;;;;;;;;;;;;29.42;59.92;155063.41;1644094;86;20936;-60
2022/07/24 07:05:01;;;;;;;;;;;;;;;29.48;58.93;155076.53;1646883;86;20458;-60
2022/07/24 07:07:28;;;;;;;;;;;;;;;29.53;58.56;155091.00;1653514;86;22220;-61
2022/07/24 07:09:55;;;;;;;;;;;;;;;29.55;59.56;155094.95;1653447;86;20186;-60
2022/07/24 07:12:21;;;;;;;;;;;;;;;29.56;59.95;155097.58;1681550;85;20183;-60
2022/07/24 07:14:48;;;;;;;;;;;;;;;29.61;59.21;155110.70;1683868;84;20183;-60
2022/07/24 07:17:17;;;;;;;;;;;;;;;29.65;58.17;155121.19;1683021;85;20203;-60
2022/07/24 07:19:44;;;;;;;;;;;;;;;29.67;57.46;155125.16;1643767;86;21102;-60
2022/07/24 07:22:10;;;;;;;;;;;;;;;29.65;56.83;155119.91;1643802;87;20433;-60
2022/07/24 07:24:38;;;;;;;;;;;;;;;29.61;57.09;155110.70;1643819;86;20218;-61
2022/07/24 07:27:04;;;;;;;;;;;;;;;29.67;55.32;155126.44;1643620;86;20400;-60
2022/07/24 07:29:31;;;;;;;;;;;;;;;29.67;53.67;155126.44;1643762;87;20227;-59
2022/07/24 07:31:58;;;;;;;;;;;;;;;29.61;53.45;155110.70;1643748;87;22846;-60
2022/07/24 07:34:24;;;;;;;;;;;;;;;29.53;54.16;155091.00;1643659;86;20277;-60
2022/07/24 07:36:51;;;;;;;;;;;;;;;29.43;54.01;155066.03;1643521;87;20236;-61
2022/07/24 07:39:18;;;;;;;;;;;;;;;29.37;54.85;155048.91;1643526;86;20235;-60
2022/07/24 07:41:45;;;;;;;;;;;;;;;29.33;54.51;155038.41;1643755;86;20218;-60
2022/07/24 07:44:12;;;;;;;;;;;;;;;29.24;55.66;155017.42;1643758;87;21226;-61
2022/07/24 07:46:38;;;;;;;;;;;;;;;29.26;56.26;155021.33;1643822;86;20480;-60
2022/07/24 07:49:05;;;;;;;;;;;;;;;29.28;56.65;155026.58;1643587;86;20200;-60
2022/07/24 07:51:32;;;;;;;;;;;;;;;29.40;56.94;155056.78;1643779;87;20216;-60
2022/07/24 07:53:59;;;;;;;;;;;;;;;29.53;56.37;155089.70;1643726;86;20685;-60
2022/07/24 07:56:25;;;;;;;;;;;;;;;29.60;55.81;155108.08;1643783;87;21104;-61
2022/07/24 07:58:54;;;;;;;;;;;;;;;29.62;56.58;155111.98;1643923;86;20527;-60
2022/07/24 08:01:20;;;;;;;;;;;;;;;29.60;56.61;155108.08;1643711;86;20242;-62
2022/07/24 08:03:47;;;;;;;;;;;;;;;29.62;56.85;155113.31;1643535;86;20218;-59
2022/07/24 08:06:15;;;;;;;;;;;;;;;29.59;57.82;155105.45;1652148;86;20194;-59
2022/07/24 08:08:42;;;;;;;;;;;;;;;29.60;58.11;155108.08;1653576;85;21230;-60
2022/07/24 08:11:09;;;;;;;;;;;;;;;29.62;57.94;155111.98;1666015;85;20397;-59
2022/07/24 08:13:35;;;;;;;;;;;;;;;29.53;58.10;155091.00;1684011;84;20195;-60
2022/07/24 08:16:04;;;;;;;;;;;;;;;29.43;59.39;155066.03;1683858;84;21010;-60
2022/07/24 08:18:31;;;;;;;;;;;;;;;29.36;59.48;155047.63;1662193;84;20248;-60
2022/07/24 08:20:58;;;;;;;;;;;;;;;29.34;59.69;155042.38;1643725;86;21970;-60
2022/07/24 08:23:25;;;;;;;;;;;;;;;29.30;60.53;155033.16;1643665;86;20231;-60
2022/07/24 08:25:52;;;;;;;;;;;;;;;29.29;60.89;155029.20;1643737;86;20239;-60
2022/07/24 08:28:19;;;;;;;;;;;;;;;29.26;61.19;155022.67;1643656;87;20649;-60
2022/07/24 08:30:46;;;;;;;;;;;;;;;29.22;61.56;155010.84;1643675;86;20485;-60
2022/07/24 08:33:13;;;;;;;;;;;;;;;29.20;62.29;155005.59;1643889;86;21931;-60
2022/07/24 08:35:40;;;;;;;;;;;;;;;29.19;61.13;155002.97;1643743;86;20231;-60
2022/07/24 08:38:07;;;;;;;;;;;;;;;29.18;61.13;155001.67;1643361;87;20456;-60
2022/07/24 08:40:38;;;;;;;;;;;;;;;29.18;61.80;155000.34;1643200;86;21083;-60
2022/07/24 08:43:07;;;;;;;;;;;;;;;29.23;61.21;155013.47;1643055;87;20394;-61
2022/07/24 08:45:37;;;;;;;;;;;;;;;29.29;60.09;155030.53;1643730;87;21243;-61
2022/07/24 08:48:04;;;;;;;;;;;;;;;29.37;58.61;155050.25;1643540;87;20390;-61
2022/07/24 08:50:34;;;;;;;;;;;;;;;29.41;57.79;155060.78;1644306;86;20207;-61
2022/07/24 08:53:02;;;;;;;;;;;;;;;29.45;57.58;155071.28;1643677;87;20223;-60
2022/07/24 08:55:29;;;;;;;;;;;;;;;29.44;57.96;155067.38;1643994;86;20471;-61
2022/07/24 08:57:56;;;;;;;;;;;;;;;29.45;57.03;155070.00;1643784;86;23093;-61
2022/07/24 09:00:24;;;;;;;;;;;;;;;29.48;54.90;155077.87;1643843;86;20241;-58
2022/07/24 09:02:51;;;;;;;;;;;;;;;29.53;55.06;155091.00;1643851;87;20251;-60
2022/07/24 09:05:19;;;;;;;;;;;;;;;29.57;55.82;155101.48;1648418;86;20181;-60
2022/07/24 09:07:45;;;;;;;;;;;;;;;29.56;55.67;155097.58;1653334;85;20189;-60
2022/07/24 09:10:15;;;;;;;;;;;;;;;29.47;56.26;155073.91;1654243;85;22734;-60
2022/07/24 09:12:45;;;;;;;;;;;;;;;29.38;56.35;155052.88;1684289;84;20304;-60
2022/07/24 09:15:20;;;;;;;;;;;;;;;29.35;56.68;155045.00;1684336;85;20147;-60
2022/07/24 09:17:54;;;;;;;;;;;;;;;29.33;57.38;155039.75;1673935;84;20239;-60
2022/07/24 09:20:21;;;;;;;;;;;;;;;29.26;58.07;155021.33;1644082;86;20246;-60
2022/07/24 09:22:48;;;;;;;;;;;;;;;29.15;58.34;154995.09;1643865;87;21238;-60
2022/07/24 09:25:21;;;;;;;;;;;;;;;29.07;58.71;154974.11;1618073;87;20218;-60
2022/07/24 09:27:55;;;;;;;;;;;;;;;29.01;59.13;154958.31;1643769;86;20203;-69
2022/07/24 09:30:31;;;;;;;;;;;;;;;28.96;59.68;154945.19;1643900;86;20226;-69
2022/07/24 09:33:00;;;;;;;;;;;;;;;28.85;60.48;154918.97;1643828;86;20251;-68
2022/07/24 09:35:39;;;;;;;;;;;;;;;28.73;61.18;154887.39;1644280;86;21237;-69
2022/07/24 09:38:10;;;;;;;;;;;;;;;28.70;61.43;154880.80;1643755;86;20467;-69
2022/07/24 09:40:39;;;;;;;;;;;;;;;28.64;61.37;154863.78;1644012;87;20183;-69
2022/07/24 09:43:23;;;;;;;;;;;;;;;28.56;61.22;154844.08;1643800;87;20607;-69
2022/07/24 09:46:07;;;;;;;;;;;;;;;28.46;61.04;154819.14;1643806;87;20223;-69
2022/07/24 09:48:37;;;;;;;;;;;;;;;28.39;61.01;154802.06;1644107;86;22356;-68
2022/07/24 09:51:08;;;;;;;;;;;;;;;28.29;61.67;154777.12;1644022;87;20473;-69
2022/07/24 09:53:36;;;;;;;;;;;;;;;28.24;61.73;154762.69;1643553;86;20210;-69
2022/07/24 09:56:10;;;;;;;;;;;;;;;28.22;61.72;154757.44;1643145;86;20245;-68
2022/07/24 09:58:39;;;;;;;;;;;;;;;28.24;61.90;154764.02;1643581;87;20211;-69
2022/07/24 10:01:08;;;;;;;;;;;;;;;28.28;61.94;154774.50;1641627;87;21146;-68
2022/07/24 10:03:38;;;;;;;;;;;;;;;28.35;61.98;154790.25;1643966;86;20460;-69
2022/07/24 10:06:11;;;;;;;;;;;;;;;28.41;61.97;154806.03;1651658;85;20206;-68
2022/07/24 10:08:40;;;;;;;;;;;;;;;28.48;61.82;154824.39;1653785;86;20203;-69
2022/07/24 10:11:08;;;;;;;;;;;;;;;28.55;61.61;154842.75;1665944;85;20234;-69
2022/07/24 10:13:34;;;;;;;;;;;;;;;28.64;61.61;154865.06;1684421;85;21900;-69
2022/07/24 10:16:30;;;;;;;;;;;;;;;28.73;61.01;154887.39;1683992;85;20174;-69
2022/07/24 10:19:06;;;;;;;;;;;;;;;28.74;60.80;154891.34;1654463;84;20202;-69
2022/07/24 10:21:34;;;;;;;;;;;;;;;28.73;61.19;154888.67;1643992;87;20127;-69
2022/07/24 10:24:07;;;;;;;;;;;;;;;28.66;61.45;154870.31;1643873;86;20203;-68
2022/07/24 10:26:36;;;;;;;;;;;;;;;28.56;61.50;154845.38;1644066;87;21115;-68
2022/07/24 10:29:15;;;;;;;;;;;;;;;28.54;61.40;154840.13;1643710;86;20459;-69
2022/07/24 10:31:43;;;;;;;;;;;;;;;28.56;61.30;154844.08;1643772;87;20210;-69
2022/07/24 10:34:20;;;;;;;;;;;;;;;28.54;60.31;154840.13;1643850;87;20921;-69
2022/07/24 10:37:21;;;;;;;;;;;;;;;28.54;59.83;154838.84;1642837;87;20207;-69
2022/07/24 10:40:13;;;;;;;;;;;;;;;28.50;59.29;154829.63;1640028;86;21141;-68
2022/07/24 10:43:09;;;;;;;;;;;;;;;28.52;59.16;154834.88;1625046;88;20504;-69
2022/07/24 10:45:57;;;;;;;;;;;;;;;28.57;58.77;154847.98;1625334;88;20231;-69
2022/07/24 10:48:26;;;;;;;;;;;;;;;28.63;57.89;154861.11;1625236;87;20240;-69
2022/07/24 10:51:08;;;;;;;;;;;;;;;28.70;57.32;154879.52;1625220;88;20207;-69
2022/07/24 10:53:40;;;;;;;;;;;;;;;28.76;57.38;154895.25;1625779;87;21100;-69
2022/07/24 10:56:23;;;;;;;;;;;;;;;28.81;56.51;154908.42;1625162;87;20184;-69
2022/07/24 10:59:00;;;;;;;;;;;;;;;28.82;55.07;154909.75;1625221;88;20207;-69
2022/07/24 11:01:35;;;;;;;;;;;;;;;28.75;53.49;154892.62;1625213;88;20207;-69
2022/07/24 11:04:23;;;;;;;;;;;;;;;28.64;53.44;154865.06;1625298;88;20464;-69
2022/07/24 11:06:53;;;;;;;;;;;;;;;28.57;53.83;154847.98;1604845;88;22177;-69
2022/07/24 11:09:25;;;;;;;;;;;;;;;28.53;54.60;154836.22;1604697;88;20148;-69
2022/07/24 11:11:57;;;;;;;;;;;;;;;28.51;54.09;154832.25;1642290;86;20184;-69
2022/07/24 11:14:27;;;;;;;;;;;;;;;28.52;54.46;154834.88;1657219;86;20194;-69
2022/07/24 11:16:54;;;;;;;;;;;;;;;28.53;54.16;154837.50;1656982;86;20204;-69
2022/07/24 11:19:25;;;;;;;;;;;;;;;28.48;53.55;154824.39;1628578;86;21293;-69
2022/07/24 11:21:55;;;;;;;;;;;;;;;28.48;53.17;154823.05;1624939;88;20208;-69
2022/07/24 11:24:25;;;;;;;;;;;;;;;28.51;52.16;154832.25;1624789;88;20227;-68
2022/07/24 11:26:56;;;;;;;;;;;;;;;28.55;52.02;154842.75;1625178;88;20516;-69
2022/07/24 11:29:30;;;;;;;;;;;;;;;28.57;50.31;154847.98;1625536;87;20487;-69
2022/07/24 11:32:10;;;;;;;;;;;;;;;28.59;50.09;154853.23;1625493;88;21081;-69
2022/07/24 11:34:37;;;;;;;;;;;;;;;28.65;51.34;154866.41;1625178;88;20212;-68
2022/07/24 11:37:06;;;;;;;;;;;;;;;28.71;52.41;154882.14;1625098;87;20452;-69
2022/07/24 11:39:36;;;;;;;;;;;;;;;28.76;52.71;154895.25;1625364;88;20251;-68
2022/07/24 11:42:05;;;;;;;;;;;;;;;28.85;53.10;154918.97;1643052;86;20560;-68
2022/07/24 11:44:43;;;;;;;;;;;;;;;28.97;52.63;154947.81;1643752;87;21222;-69
2022/07/24 11:47:13;;;;;;;;;;;;;;;29.06;51.89;154971.44;1643178;86;20266;-68
2022/07/24 11:49:49;;;;;;;;;;;;;;;29.15;51.96;154993.75;1643659;87;20468;-69
2022/07/24 11:52:21;;;;;;;;;;;;;;;29.24;51.95;155016.08;1643531;87;20429;-68
2022/07/24 11:54:51;;;;;;;;;;;;;;;29.34;52.31;155042.38;1643253;86;20266;-69
2022/07/24 11:57:22;;;;;;;;;;;;;;;29.42;50.78;155063.41;1643964;87;22049;-70
2022/07/24 11:59:50;;;;;;;;;;;;;;;29.44;50.73;155068.66;1643772;86;20223;-70
2022/07/24 12:02:17;;;;;;;;;;;;;;;29.52;50.69;155087.08;1643711;86;20179;-70
2022/07/24 12:04:44;;;;;;;;;;;;;;;29.55;51.50;155094.95;1646091;86;20186;-69
2022/07/24 12:07:13;;;;;;;;;;;;;;;29.59;51.18;155105.45;1653479;85;20166;-69
2022/07/24 12:09:46;;;;;;;;;;;;;;;29.63;50.81;155115.95;1653806;86;21101;-69
2022/07/24 12:12:28;;;;;;;;;;;;;;;29.68;51.23;155127.78;1679732;85;20140;-69
2022/07/24 12:15:11;;;;;;;;;;;;;;;29.68;51.60;155129.06;1684060;85;20239;-69
2022/07/24 12:18:06;;;;;;;;;;;;;;;29.61;53.45;155110.70;1676278;84;20195;-68
2022/07/24 12:20:35;;;;;;;;;;;;;;;29.52;54.66;155087.08;1643756;87;20242;-69
2022/07/24 12:23:05;;;;;;;;;;;;;;;29.50;55.41;155081.78;1643610;87;21256;-69
2022/07/24 12:25:32;;;;;;;;;;;;;;;29.50;55.73;155081.78;1643816;86;20238;-69
2022/07/24 12:28:12;;;;;;;;;;;;;;;29.54;55.76;155092.33;1643739;86;20451;-69
2022/07/24 12:30:41;;;;;;;;;;;;;;;29.62;55.97;155111.98;1643795;86;20234;-69
2022/07/24 12:33:29;;;;;;;;;;;;;;;29.70;55.90;155133.03;1643664;87;20231;-69
2022/07/24 12:36:11;;;;;;;;;;;;;;;29.79;55.57;155155.36;1643673;87;21095;-70
2022/07/24 12:38:39;;;;;;;;;;;;;;;29.92;55.63;155188.19;1643825;86;20227;-69
2022/07/24 12:41:11;;;;;;;;;;;;;;;30.03;55.00;155215.83;1635211;87;20464;-69
2022/07/24 12:43:55;;;;;;;;;;;;;;;30.12;54.93;155239.45;1625383;88;20215;-69